Time;durP1;ratioP1;P1;durP2;ratioP2;P2;SDS_P1;SDS_P2;PMS_P1;PMS_P2;Temp;Humidity;BMP_temperature;BMP_pressure;BME280_temperature;BME280_humidity;BME280_pressure;Samples;Min_cycle;Max_cycle;Signal;HPM_P1;HPM_P2
2023/12/11 00:02:54;;;;;;;;;;;9.90;99.90;;;;;;8439107;28;20358;-71
2023/12/11 00:06:56;;;;;;;;;;;9.90;99.90;;;;;;8444394;28;19927;-71
2023/12/11 00:10:58;;;;;;;;;;;9.80;99.90;;;;;;8415148;28;19932;-71
2023/12/11 00:15:00;;;;;;;;;;;9.80;99.90;;;;;;8424461;28;19973;-71
2023/12/11 00:19:01;;;;;;;;;;;9.70;99.90;;;;;;8417335;28;19954;-71
2023/12/11 00:23:03;;;;;;;;;;;9.70;99.90;;;;;;8425359;28;19928;-71
2023/12/11 00:27:05;;;;;;;;;;;9.70;99.90;;;;;;8426334;28;19928;-71
2023/12/11 00:41:50;;;;;;;;;;;9.60;99.90;;;;;;8412515;28;20002;-72
2023/12/11 00:45:51;;;;;;;;;;;9.60;99.90;;;;;;8397223;28;20337;-71
2023/12/11 00:49:53;;;;;;;;;;;9.60;99.90;;;;;;8390794;28;19925;-72
2023/12/11 00:53:55;;;;;;;;;;;9.70;99.90;;;;;;8393541;28;20353;-72
2023/12/11 00:57:57;;;;;;;;;;;9.70;99.90;;;;;;8389618;28;20001;-72
2023/12/11 01:01:58;;;;;;;;;;;9.70;99.90;;;;;;8409344;28;19924;-72
2023/12/11 01:06:00;;;;;;;;;;;9.70;99.90;;;;;;8404880;28;19932;-72
2023/12/11 01:10:02;;;;;;;;;;;9.80;99.90;;;;;;8414031;28;19964;-71
2023/12/11 01:14:04;;;;;;;;;;;9.80;99.90;;;;;;8408490;28;19959;-71
2023/12/11 01:18:06;;;;;;;;;;;9.80;99.90;;;;;;8406275;28;19978;-71
2023/12/11 01:22:08;;;;;;;;;;;9.90;99.90;;;;;;8413228;28;20341;-71
2023/12/11 01:26:09;;;;;;;;;;;9.90;99.90;;;;;;8401898;28;20425;-71
2023/12/11 01:30:11;;;;;;;;;;;10.00;99.90;;;;;;8404005;28;19924;-71
2023/12/11 01:34:13;;;;;;;;;;;10.00;99.90;;;;;;8403784;28;19931;-71
2023/12/11 01:38:15;;;;;;;;;;;10.00;99.90;;;;;;8409597;28;19924;-71
2023/12/11 01:42:17;;;;;;;;;;;10.10;99.90;;;;;;8424755;28;19924;-71
2023/12/11 01:46:18;;;;;;;;;;;10.10;99.90;;;;;;8446677;28;20375;-71
2023/12/11 01:50:20;;;;;;;;;;;10.10;99.90;;;;;;8433753;28;19924;-71
2023/12/11 01:54:22;;;;;;;;;;;10.10;99.90;;;;;;8446090;28;19932;-71
2023/12/11 01:58:24;;;;;;;;;;;10.10;99.90;;;;;;8442133;28;19935;-71
2023/12/11 02:02:26;;;;;;;;;;;10.10;99.90;;;;;;8427492;28;19928;-72
2023/12/11 02:06:27;;;;;;;;;;;10.10;99.90;;;;;;8429092;28;19989;-72
2023/12/11 02:10:29;;;;;;;;;;;10.10;99.90;;;;;;8422688;28;20576;-71
2023/12/11 02:14:32;;;;;;;;;;;10.20;99.90;;;;;;8426764;28;19932;-71
2023/12/11 02:18:33;;;;;;;;;;;10.20;99.90;;;;;;8423666;28;19932;-71
2023/12/11 02:22:35;;;;;;;;;;;10.10;99.90;;;;;;8446250;28;19935;-71
2023/12/11 02:26:37;;;;;;;;;;;10.00;99.90;;;;;;8426296;28;20299;-71
2023/12/11 02:30:48;;;;;;;;;;;10.00;99.90;;;;;;8417996;28;20353;-72
2023/12/11 02:34:49;;;;;;;;;;;9.90;99.90;;;;;;8422180;28;19924;-71
2023/12/11 02:38:51;;;;;;;;;;;9.90;99.90;;;;;;8435940;28;19976;-71
2023/12/11 02:42:53;;;;;;;;;;;9.80;99.90;;;;;;8448471;28;19950;-71
2023/12/11 02:46:55;;;;;;;;;;;9.80;99.90;;;;;;8430277;28;19924;-71
2023/12/11 02:50:56;;;;;;;;;;;9.80;99.90;;;;;;8441466;28;19933;-72
2023/12/11 02:54:58;;;;;;;;;;;9.70;99.90;;;;;;8424660;28;20147;-71
2023/12/11 02:59:00;;;;;;;;;;;9.60;99.90;;;;;;8430544;28;19935;-71
2023/12/11 03:03:02;;;;;;;;;;;9.50;99.90;;;;;;8442092;28;20502;-71
2023/12/11 03:07:03;;;;;;;;;;;9.50;99.90;;;;;;8423724;28;19924;-72
2023/12/11 03:11:05;;;;;;;;;;;9.50;99.90;;;;;;8432786;28;19988;-71
2023/12/11 03:15:08;;;;;;;;;;;9.50;99.90;;;;;;8432825;28;19924;-72
2023/12/11 03:19:09;;;;;;;;;;;9.50;99.90;;;;;;8422167;28;19929;-71
2023/12/11 03:23:11;;;;;;;;;;;9.40;99.90;;;;;;8418526;28;19930;-72
2023/12/11 03:27:13;;;;;;;;;;;9.40;99.90;;;;;;8433638;28;19939;-71
2023/12/11 03:31:14;;;;;;;;;;;9.40;99.90;;;;;;8424138;28;19924;-71
2023/12/11 03:35:16;;;;;;;;;;;9.40;99.90;;;;;;8433569;28;20372;-72
2023/12/11 03:39:18;;;;;;;;;;;9.40;99.90;;;;;;8422212;28;19938;-71
2023/12/11 03:43:19;;;;;;;;;;;9.30;99.90;;;;;;8431940;28;19981;-72
2023/12/11 03:47:21;;;;;;;;;;;9.40;99.90;;;;;;8424138;28;20372;-72
2023/12/11 03:51:23;;;;;;;;;;;9.40;99.90;;;;;;8425802;28;19925;-71
2023/12/11 03:55:24;;;;;;;;;;;9.30;99.90;;;;;;8421670;28;19924;-71
2023/12/11 03:59:26;;;;;;;;;;;9.30;99.90;;;;;;8435918;28;20186;-71
2023/12/11 04:03:28;;;;;;;;;;;9.40;99.90;;;;;;8425181;28;19931;-71
2023/12/11 04:07:30;;;;;;;;;;;9.40;99.90;;;;;;8425015;28;19977;-71
2023/12/11 04:11:32;;;;;;;;;;;9.40;99.90;;;;;;8428502;28;20356;-71
2023/12/11 04:15:34;;;;;;;;;;;9.40;99.90;;;;;;8425244;28;19924;-71
2023/12/11 04:19:36;;;;;;;;;;;9.40;99.90;;;;;;8436992;28;19969;-71
2023/12/11 04:23:38;;;;;;;;;;;9.40;99.90;;;;;;8418640;28;19932;-71
2023/12/11 04:27:39;;;;;;;;;;;9.40;99.90;;;;;;8420442;28;19924;-71
2023/12/11 04:31:41;;;;;;;;;;;9.30;99.90;;;;;;8425540;28;19988;-71
2023/12/11 04:35:44;;;;;;;;;;;9.40;99.90;;;;;;8428055;28;19932;-71
2023/12/11 04:39:45;;;;;;;;;;;9.40;99.90;;;;;;8429871;28;20363;-72
2023/12/11 04:43:47;;;;;;;;;;;9.40;99.90;;;;;;8434417;28;19947;-71
2023/12/11 04:47:49;;;;;;;;;;;9.40;99.90;;;;;;8428748;28;20453;-71
2023/12/11 04:51:51;;;;;;;;;;;9.40;99.90;;;;;;8427475;28;20398;-71
2023/12/11 04:55:52;;;;;;;;;;;9.50;99.90;;;;;;8412848;28;19925;-71
2023/12/11 04:59:54;;;;;;;;;;;9.50;99.90;;;;;;8414482;28;19928;-71
2023/12/11 05:03:56;;;;;;;;;;;9.60;99.90;;;;;;8407264;28;20408;-71
2023/12/11 05:07:57;;;;;;;;;;;9.60;99.90;;;;;;8414915;28;20424;-71
2023/12/11 05:11:59;;;;;;;;;;;9.60;99.90;;;;;;8438185;28;19974;-71
2023/12/11 05:16:01;;;;;;;;;;;9.70;99.90;;;;;;8427400;28;19924;-71
2023/12/11 05:20:03;;;;;;;;;;;9.70;99.90;;;;;;8439033;28;19931;-71
2023/12/11 05:24:05;;;;;;;;;;;9.80;99.90;;;;;;8432502;28;19928;-71
2023/12/11 05:28:06;;;;;;;;;;;9.80;99.90;;;;;;8434619;28;20287;-71
2023/12/11 05:32:10;;;;;;;;;;;9.90;99.90;;;;;;8426381;28;19970;-72
2023/12/11 05:36:11;;;;;;;;;;;9.90;99.90;;;;;;8436711;28;19931;-71
2023/12/11 05:40:13;;;;;;;;;;;9.90;99.90;;;;;;8436315;28;20352;-71
2023/12/11 05:44:23;;;;;;;;;;;9.90;99.90;;;;;;8432002;28;19932;-71
2023/12/11 05:48:24;;;;;;;;;;;9.80;99.90;;;;;;8441849;28;19975;-71
2023/12/11 05:52:26;;;;;;;;;;;9.80;99.90;;;;;;8444916;28;19928;-72
2023/12/11 05:56:30;;;;;;;;;;;9.70;99.90;;;;;;8438796;28;20295;-71
2023/12/11 06:10:38;;;;;;;;;;;9.60;99.90;;;;;;8439468;28;19919;-71
2023/12/11 06:14:40;;;;;;;;;;;9.60;99.90;;;;;;8440755;28;19931;-71
2023/12/11 06:18:45;;;;;;;;;;;9.60;99.90;;;;;;8432135;28;19946;-71
2023/12/11 06:22:47;;;;;;;;;;;9.50;99.90;;;;;;8450581;28;20341;-71
2023/12/11 06:26:49;;;;;;;;;;;9.50;99.90;;;;;;8438667;28;19924;-71
2023/12/11 06:30:51;;;;;;;;;;;9.50;99.90;;;;;;8437268;28;19924;-71
2023/12/11 06:34:52;;;;;;;;;;;9.50;99.90;;;;;;8437591;28;19934;-71
2023/12/11 06:38:54;;;;;;;;;;;9.40;99.90;;;;;;8430761;28;19949;-71
2023/12/11 06:42:56;;;;;;;;;;;9.50;99.90;;;;;;8434117;28;19932;-71
2023/12/11 06:46:58;;;;;;;;;;;9.50;99.90;;;;;;8441675;28;19924;-71
2023/12/11 06:50:59;;;;;;;;;;;9.50;99.90;;;;;;8445250;28;19978;-71
2023/12/11 06:55:02;;;;;;;;;;;9.50;99.90;;;;;;8422133;28;20284;-72
2023/12/11 06:59:04;;;;;;;;;;;9.40;99.90;;;;;;8439599;28;19960;-71
2023/12/11 07:03:06;;;;;;;;;;;9.40;99.90;;;;;;8434946;28;19928;-71
2023/12/11 07:07:08;;;;;;;;;;;9.30;99.90;;;;;;8435848;28;19931;-71
2023/12/11 07:11:09;;;;;;;;;;;9.30;99.90;;;;;;8441087;28;20919;-72
2023/12/11 07:15:11;;;;;;;;;;;9.30;99.90;;;;;;8432307;28;19931;-71
2023/12/11 07:19:13;;;;;;;;;;;9.20;99.90;;;;;;8426887;28;19924;-71
2023/12/11 07:23:15;;;;;;;;;;;9.20;99.90;;;;;;8438397;28;19926;-71
2023/12/11 07:27:17;;;;;;;;;;;9.20;99.90;;;;;;8447133;28;19930;-71
2023/12/11 07:31:18;;;;;;;;;;;9.20;99.90;;;;;;8428839;28;20387;-71
2023/12/11 07:35:20;;;;;;;;;;;9.20;99.90;;;;;;8437032;28;19923;-71
2023/12/11 07:39:22;;;;;;;;;;;9.20;99.90;;;;;;8431241;28;19924;-71
2023/12/11 07:43:25;;;;;;;;;;;9.20;99.90;;;;;;8437516;28;20224;-71
2023/12/11 07:47:27;;;;;;;;;;;9.30;99.90;;;;;;8445870;28;19979;-71
2023/12/11 07:51:29;;;;;;;;;;;9.30;99.90;;;;;;8437866;28;19931;-71
2023/12/11 07:55:31;;;;;;;;;;;9.20;99.90;;;;;;8440585;28;19940;-71
2023/12/11 07:59:32;;;;;;;;;;;9.20;99.90;;;;;;8426637;28;20283;-71
2023/12/11 08:03:34;;;;;;;;;;;9.20;99.90;;;;;;8410987;28;20368;-71
2023/12/11 08:07:36;;;;;;;;;;;9.30;99.90;;;;;;8441747;28;19931;-71
2023/12/11 08:11:38;;;;;;;;;;;9.20;99.90;;;;;;8428789;28;19924;-71
2023/12/11 08:15:40;;;;;;;;;;;9.20;99.90;;;;;;8426014;28;20042;-71
2023/12/11 08:19:42;;;;;;;;;;;9.20;99.90;;;;;;8425701;28;19924;-71
2023/12/11 08:23:44;;;;;;;;;;;9.30;99.90;;;;;;8433199;28;19927;-71
2023/12/11 08:27:45;;;;;;;;;;;9.30;99.90;;;;;;8415137;28;20116;-71
2023/12/11 08:31:47;;;;;;;;;;;9.30;99.90;;;;;;8433766;28;19977;-71
2023/12/11 08:35:49;;;;;;;;;;;9.30;99.90;;;;;;8445668;28;19931;-71
2023/12/11 08:39:51;;;;;;;;;;;9.30;99.90;;;;;;8436513;28;19927;-71
2023/12/11 08:43:53;;;;;;;;;;;9.30;99.90;;;;;;8455619;28;20310;-71
2023/12/11 08:47:54;;;;;;;;;;;9.30;99.90;;;;;;8428214;28;20379;-71
2023/12/11 08:51:56;;;;;;;;;;;9.40;99.90;;;;;;8429266;28;19928;-71
2023/12/11 08:55:58;;;;;;;;;;;9.40;99.90;;;;;;8444046;28;19923;-71
2023/12/11 08:59:59;;;;;;;;;;;9.40;99.90;;;;;;8435301;28;19947;-71
2023/12/11 09:04:03;;;;;;;;;;;9.50;99.90;;;;;;8444811;28;19930;-71
2023/12/11 09:08:05;;;;;;;;;;;9.50;99.90;;;;;;8439430;28;19934;-71
2023/12/11 09:12:06;;;;;;;;;;;9.50;99.90;;;;;;8434386;28;20503;-71
2023/12/11 09:16:19;;;;;;;;;;;9.50;99.90;;;;;;8422805;28;19928;-71
2023/12/11 09:20:21;;;;;;;;;;;9.60;99.90;;;;;;8432818;28;19924;-71
2023/12/11 09:24:23;;;;;;;;;;;9.60;99.90;;;;;;8436353;28;20395;-71
2023/12/11 09:28:25;;;;;;;;;;;9.60;99.90;;;;;;8429991;28;19954;-71
2023/12/11 09:32:32;;;;;;;;;;;9.60;99.90;;;;;;8424561;28;19946;-72
2023/12/11 09:36:33;;;;;;;;;;;9.70;99.90;;;;;;8440845;28;19928;-71
2023/12/11 09:40:35;;;;;;;;;;;9.60;99.90;;;;;;8433577;28;20247;-71
2023/12/11 09:44:37;;;;;;;;;;;9.60;99.90;;;;;;8436756;28;19959;-71
2023/12/11 09:48:39;;;;;;;;;;;9.60;99.90;;;;;;8445831;28;19931;-72
2023/12/11 09:52:41;;;;;;;;;;;9.50;99.90;;;;;;8449841;28;19970;-72
2023/12/11 09:56:43;;;;;;;;;;;9.60;99.90;;;;;;8431949;28;19931;-71
2023/12/11 10:00:45;;;;;;;;;;;9.60;99.90;;;;;;8427452;28;19924;-71
2023/12/11 10:05:09;;;;;;;;;;;9.60;99.90;;;;;;8433352;28;19972;-71
2023/12/11 10:09:30;;;;;;;;;;;9.60;99.90;;;;;;8436012;28;20292;-71
2023/12/11 10:13:31;;;;;;;;;;;9.60;99.90;;;;;;8428370;28;19932;-71
2023/12/11 10:17:33;;;;;;;;;;;9.50;99.90;;;;;;8419756;28;19924;-71
2023/12/11 10:21:37;;;;;;;;;;;9.50;99.90;;;;;;8439352;28;19975;-71
2023/12/11 10:25:40;;;;;;;;;;;9.40;99.90;;;;;;8432353;28;19935;-71
2023/12/11 10:29:41;;;;;;;;;;;9.40;99.90;;;;;;8454116;28;20396;-72
2023/12/11 10:33:47;;;;;;;;;;;9.50;99.90;;;;;;8435547;28;19964;-71
2023/12/11 10:37:49;;;;;;;;;;;9.60;99.90;;;;;;8449963;28;20292;-71
2023/12/11 10:41:50;;;;;;;;;;;9.60;99.90;;;;;;8441201;28;19967;-71
2023/12/11 10:45:53;;;;;;;;;;;9.60;99.90;;;;;;8431977;28;19932;-71
2023/12/11 10:49:55;;;;;;;;;;;9.60;99.90;;;;;;8439622;28;19932;-71
2023/12/11 10:53:57;;;;;;;;;;;9.50;99.90;;;;;;8431846;28;20034;-71
2023/12/11 10:58:01;;;;;;;;;;;9.40;99.90;;;;;;8441116;28;19977;-71
2023/12/11 11:02:03;;;;;;;;;;;9.30;99.90;;;;;;8434202;28;19928;-71
2023/12/11 11:06:06;;;;;;;;;;;9.30;99.90;;;;;;8454947;28;19971;-71
2023/12/11 11:10:13;;;;;;;;;;;9.30;99.90;;;;;;8422959;28;19932;-71
2023/12/11 11:14:20;;;;;;;;;;;9.40;99.90;;;;;;8427007;28;20435;-71
2023/12/11 11:18:21;;;;;;;;;;;9.50;99.90;;;;;;8415860;28;19928;-71
2023/12/11 11:22:23;;;;;;;;;;;9.70;99.90;;;;;;8425076;28;20374;-71
2023/12/11 11:26:35;;;;;;;;;;;9.90;99.90;;;;;;8436868;28;19924;-71
2023/12/11 11:30:48;;;;;;;;;;;10.20;99.90;;;;;;8443754;28;20382;-71
2023/12/11 11:34:50;;;;;;;;;;;10.30;99.90;;;;;;8415627;28;19963;-72
2023/12/11 11:38:58;;;;;;;;;;;10.20;99.90;;;;;;8434718;28;19930;-71
2023/12/11 11:43:00;;;;;;;;;;;10.20;99.90;;;;;;8422658;28;19927;-71
2023/12/11 11:47:02;;;;;;;;;;;10.20;99.90;;;;;;8443073;28;19930;-72
2023/12/11 11:51:04;;;;;;;;;;;10.20;99.90;;;;;;8436948;27;19939;-72
2023/12/11 11:55:08;;;;;;;;;;;10.20;99.90;;;;;;8444589;28;19934;-72
2023/12/11 11:59:10;;;;;;;;;;;10.20;99.90;;;;;;8452113;28;19935;-72
2023/12/11 12:03:12;;;;;;;;;;;10.20;99.90;;;;;;8429697;28;19954;-72
2023/12/11 12:07:13;;;;;;;;;;;10.20;99.90;;;;;;8426002;28;19924;-71
2023/12/11 12:11:15;;;;;;;;;;;10.10;99.90;;;;;;8439420;28;19924;-71
2023/12/11 12:15:17;;;;;;;;;;;10.10;99.90;;;;;;8424661;28;19925;-72
2023/12/11 12:19:31;;;;;;;;;;;10.10;99.90;;;;;;8414510;28;20327;-71
2023/12/11 12:23:34;;;;;;;;;;;10.10;99.90;;;;;;8427978;28;19928;-71
2023/12/11 12:27:36;;;;;;;;;;;10.20;99.90;;;;;;8414451;28;19924;-72
2023/12/11 12:31:39;;;;;;;;;;;10.20;99.90;;;;;;8423669;28;19931;-71
2023/12/11 12:35:43;;;;;;;;;;;10.30;99.90;;;;;;8443044;28;19928;-72
2023/12/11 12:39:44;;;;;;;;;;;10.40;99.90;;;;;;8453652;28;20376;-71
2023/12/11 12:43:47;;;;;;;;;;;10.50;99.90;;;;;;8419811;28;19923;-71
2023/12/11 12:47:49;;;;;;;;;;;10.50;99.90;;;;;;8427059;28;19928;-71
2023/12/11 12:51:51;;;;;;;;;;;10.40;99.90;;;;;;8431934;28;19935;-71
2023/12/11 12:55:53;;;;;;;;;;;10.40;99.90;;;;;;8417444;28;20384;-72
2023/12/11 12:59:55;;;;;;;;;;;10.40;99.90;;;;;;8440684;28;19924;-72
2023/12/11 13:04:00;;;;;;;;;;;10.40;99.90;;;;;;8428603;28;19951;-72
2023/12/11 13:08:02;;;;;;;;;;;10.40;99.90;;;;;;8430985;28;19925;-73
2023/12/11 13:12:04;;;;;;;;;;;10.40;99.90;;;;;;8424004;28;19982;-74
2023/12/11 13:16:05;;;;;;;;;;;10.30;99.90;;;;;;8417787;28;19928;-72
2023/12/11 13:20:07;;;;;;;;;;;10.30;99.90;;;;;;8444189;28;19924;-72
2023/12/11 13:24:09;;;;;;;;;;;10.20;99.90;;;;;;8438301;28;20353;-72
2023/12/11 13:28:11;;;;;;;;;;;10.10;99.90;;;;;;8431892;28;19924;-69
2023/12/11 13:32:15;;;;;;;;;;;10.10;99.90;;;;;;8423662;28;19924;-69
2023/12/11 13:36:17;;;;;;;;;;;10.00;99.90;;;;;;8427149;28;19924;-70
2023/12/11 13:40:20;;;;;;;;;;;10.00;99.90;;;;;;8439379;28;20367;-69
2023/12/11 13:44:22;;;;;;;;;;;9.80;99.90;;;;;;8431997;28;19924;-69
2023/12/11 13:48:24;;;;;;;;;;;9.70;99.90;;;;;;8442948;28;19935;-69
2023/12/11 13:52:26;;;;;;;;;;;9.60;99.90;;;;;;8443634;28;19931;-69
2023/12/11 13:56:27;;;;;;;;;;;9.60;99.90;;;;;;8428144;28;19925;-69
2023/12/11 14:00:29;;;;;;;;;;;9.50;99.90;;;;;;8414672;28;19931;-69
2023/12/11 14:04:31;;;;;;;;;;;9.50;99.90;;;;;;8428674;28;19938;-70
2023/12/11 14:08:33;;;;;;;;;;;9.50;99.90;;;;;;8432038;28;20248;-70
2023/12/11 14:12:38;;;;;;;;;;;9.50;99.90;;;;;;8437677;28;19981;-70
2023/12/11 14:16:40;;;;;;;;;;;9.50;99.90;;;;;;8421760;28;20217;-69
2023/12/11 14:20:42;;;;;;;;;;;9.50;99.90;;;;;;8434231;28;19927;-70
2023/12/11 14:24:44;;;;;;;;;;;9.50;99.90;;;;;;8447512;28;19999;-70
2023/12/11 14:28:46;;;;;;;;;;;9.50;99.90;;;;;;8454146;28;20248;-70
2023/12/11 14:32:48;;;;;;;;;;;9.50;99.90;;;;;;8429115;28;19924;-70
2023/12/11 14:36:50;;;;;;;;;;;9.40;99.90;;;;;;8460891;28;20015;-70
2023/12/11 14:40:52;;;;;;;;;;;9.40;99.90;;;;;;8441512;28;20023;-70
2023/12/11 14:44:53;;;;;;;;;;;9.40;99.90;;;;;;8434695;28;20372;-70
2023/12/11 14:48:55;;;;;;;;;;;9.40;99.90;;;;;;8437026;28;19931;-70
2023/12/11 14:52:57;;;;;;;;;;;9.40;99.90;;;;;;8425538;28;19924;-70
2023/12/11 14:56:59;;;;;;;;;;;9.40;99.90;;;;;;8450117;28;19924;-70
2023/12/11 15:01:01;;;;;;;;;;;9.40;99.90;;;;;;8442953;28;19923;-70
2023/12/11 15:05:03;;;;;;;;;;;9.40;99.90;;;;;;8449002;28;19924;-70
2023/12/11 15:09:06;;;;;;;;;;;9.40;99.90;;;;;;8436057;28;19972;-70
2023/12/11 15:13:08;;;;;;;;;;;9.40;99.90;;;;;;8431005;28;19924;-70
2023/12/11 15:17:10;;;;;;;;;;;9.40;99.90;;;;;;8418776;28;19935;-70
2023/12/11 15:21:16;;;;;;;;;;;9.40;99.90;;;;;;8425719;28;19928;-70
2023/12/11 15:25:18;;;;;;;;;;;9.40;99.90;;;;;;8427311;28;19924;-70
2023/12/11 15:29:19;;;;;;;;;;;9.40;99.90;;;;;;8426951;28;19928;-70
2023/12/11 15:33:21;;;;;;;;;;;9.40;99.90;;;;;;8420301;28;19928;-70
2023/12/11 15:37:23;;;;;;;;;;;9.40;99.90;;;;;;8434293;28;20550;-70
2023/12/11 15:41:25;;;;;;;;;;;9.30;99.90;;;;;;8422559;28;19947;-70
2023/12/11 15:45:26;;;;;;;;;;;9.30;99.90;;;;;;8432447;28;19924;-70
2023/12/11 15:49:28;;;;;;;;;;;9.30;99.90;;;;;;8431494;28;19928;-70
2023/12/11 15:53:32;;;;;;;;;;;9.20;99.90;;;;;;8421640;28;19983;-70
2023/12/11 15:57:33;;;;;;;;;;;9.20;99.90;;;;;;8427707;28;19926;-70
2023/12/11 16:01:35;;;;;;;;;;;9.20;99.90;;;;;;8429535;28;19928;-70
2023/12/11 16:05:37;;;;;;;;;;;9.20;99.90;;;;;;8415648;28;19931;-70
2023/12/11 16:09:39;;;;;;;;;;;9.10;99.90;;;;;;8454775;27;20311;-70
2023/12/11 16:13:40;;;;;;;;;;;9.10;99.90;;;;;;8442233;28;19924;-70
2023/12/11 16:17:43;;;;;;;;;;;9.10;99.90;;;;;;8421958;28;19935;-70
2023/12/11 16:21:45;;;;;;;;;;;9.10;99.90;;;;;;8417745;28;20367;-70
2023/12/11 16:25:47;;;;;;;;;;;9.00;99.90;;;;;;8437729;28;19932;-70
2023/12/11 16:29:57;;;;;;;;;;;9.10;99.90;;;;;;8437392;28;19970;-70
2023/12/11 16:34:01;;;;;;;;;;;9.10;99.90;;;;;;8431706;28;19969;-70
2023/12/11 16:38:03;;;;;;;;;;;9.10;99.90;;;;;;8420513;28;19924;-70
2023/12/11 16:42:04;;;;;;;;;;;9.10;99.90;;;;;;8391794;28;19932;-70
2023/12/11 16:46:06;;;;;;;;;;;9.10;99.90;;;;;;8402104;28;20367;-70
2023/12/11 16:50:08;;;;;;;;;;;9.10;99.90;;;;;;8396865;28;19928;-70
2023/12/11 16:54:11;;;;;;;;;;;9.10;99.90;;;;;;8389170;28;19931;-70
2023/12/11 16:58:12;;;;;;;;;;;9.10;99.90;;;;;;8388719;28;20363;-70
2023/12/11 17:02:14;;;;;;;;;;;9.10;99.90;;;;;;8384235;28;19924;-70
2023/12/11 17:06:16;;;;;;;;;;;9.10;99.90;;;;;;8388911;28;19924;-70
2023/12/11 17:10:18;;;;;;;;;;;9.10;99.90;;;;;;8391062;28;19981;-70
2023/12/11 17:14:20;;;;;;;;;;;9.10;99.90;;;;;;8419087;27;20391;-70
2023/12/11 17:18:24;;;;;;;;;;;9.10;99.90;;;;;;8385642;28;19924;-70
2023/12/11 17:22:26;;;;;;;;;;;9.10;99.90;;;;;;8385148;28;20363;-70
2023/12/11 17:26:28;;;;;;;;;;;9.10;99.90;;;;;;8421064;27;20430;-70
2023/12/11 17:30:30;;;;;;;;;;;9.10;99.90;;;;;;8385650;28;19925;-70
2023/12/11 17:34:31;;;;;;;;;;;9.10;99.90;;;;;;8387350;28;19925;-70
2023/12/11 17:38:33;;;;;;;;;;;9.10;99.90;;;;;;8387266;28;19924;-70
2023/12/11 17:42:35;;;;;;;;;;;9.10;99.90;;;;;;8394378;28;20217;-70
2023/12/11 17:46:36;;;;;;;;;;;9.10;99.90;;;;;;8399645;28;19928;-70
2023/12/11 17:50:38;;;;;;;;;;;9.10;99.90;;;;;;8401057;28;19924;-70
2023/12/11 17:54:40;;;;;;;;;;;9.10;99.90;;;;;;8400825;28;20203;-70
2023/12/11 17:58:41;;;;;;;;;;;9.10;99.90;;;;;;8396166;28;19924;-70
2023/12/11 18:02:43;;;;;;;;;;;9.10;99.90;;;;;;8400400;28;19931;-70
2023/12/11 18:07:04;;;;;;;;;;;9.10;99.90;;;;;;8398821;28;19932;-70
2023/12/11 18:11:05;;;;;;;;;;;9.10;99.90;;;;;;8398150;28;19967;-70
2023/12/11 18:15:07;;;;;;;;;;;9.00;99.90;;;;;;8397392;28;19932;-70
2023/12/11 18:19:10;;;;;;;;;;;9.00;99.90;;;;;;8404600;28;19994;-71
2023/12/11 18:23:12;;;;;;;;;;;9.00;99.90;;;;;;8391555;28;20059;-71
2023/12/11 18:27:13;;;;;;;;;;;9.00;99.90;;;;;;8389297;28;20375;-71
2023/12/11 18:31:15;;;;;;;;;;;9.00;99.90;;;;;;8390931;28;20314;-71
2023/12/11 18:35:17;;;;;;;;;;;9.00;99.90;;;;;;8408046;28;19924;-71
2023/12/11 18:39:18;;;;;;;;;;;9.00;99.90;;;;;;8407242;28;19924;-70
2023/12/11 18:43:22;;;;;;;;;;;9.00;99.90;;;;;;8406333;28;19939;-70
2023/12/11 18:47:24;;;;;;;;;;;8.90;99.90;;;;;;8401616;28;19985;-70
2023/12/11 18:51:26;;;;;;;;;;;9.00;99.90;;;;;;8391735;28;19955;-70
2023/12/11 18:55:31;;;;;;;;;;;8.90;99.90;;;;;;8393925;28;19958;-70
2023/12/11 18:59:33;;;;;;;;;;;8.90;99.90;;;;;;8403690;28;19932;-70
2023/12/11 19:03:34;;;;;;;;;;;9.00;99.90;;;;;;8407472;28;19982;-70
2023/12/11 19:07:37;;;;;;;;;;;9.00;99.90;;;;;;8405666;28;20383;-70
2023/12/11 19:11:39;;;;;;;;;;;9.00;99.90;;;;;;8405482;28;20360;-70
2023/12/11 19:15:41;;;;;;;;;;;9.00;99.90;;;;;;8397838;28;19978;-70
2023/12/11 19:19:43;;;;;;;;;;;9.00;99.90;;;;;;8390829;28;19925;-70
2023/12/11 19:23:45;;;;;;;;;;;9.00;99.90;;;;;;8388782;28;20442;-70
2023/12/11 19:27:47;;;;;;;;;;;9.00;99.90;;;;;;8389878;28;19939;-70
2023/12/11 19:31:49;;;;;;;;;;;9.00;99.90;;;;;;8388175;28;19935;-70
2023/12/11 19:45:37;;;;;;;;;;;9.10;99.90;;;;;;8389403;28;19970;-70
2023/12/11 19:49:39;;;;;;;;;;;9.10;99.90;;;;;;8387470;28;19924;-70
2023/12/11 19:53:41;;;;;;;;;;;9.10;99.90;;;;;;8392948;28;20395;-70
2023/12/11 19:57:43;;;;;;;;;;;9.10;99.90;;;;;;8392708;28;19983;-70
2023/12/11 20:02:03;;;;;;;;;;;9.10;99.90;;;;;;8393207;28;20372;-70
2023/12/11 20:06:08;;;;;;;;;;;9.10;99.90;;;;;;8391816;28;19936;-70
2023/12/11 20:10:10;;;;;;;;;;;9.10;99.90;;;;;;8397722;28;19928;-70
2023/12/11 20:14:12;;;;;;;;;;;9.10;99.90;;;;;;8392024;28;20272;-70
2023/12/11 20:18:16;;;;;;;;;;;9.10;99.90;;;;;;8393927;28;19939;-70
2023/12/11 20:22:18;;;;;;;;;;;9.10;99.90;;;;;;8390425;28;20035;-70
2023/12/11 20:26:22;;;;;;;;;;;9.10;99.90;;;;;;8391243;28;19924;-70
2023/12/11 20:30:23;;;;;;;;;;;9.10;99.90;;;;;;8387899;28;19994;-70
2023/12/11 20:34:25;;;;;;;;;;;9.10;99.90;;;;;;8386252;28;20441;-70
2023/12/11 20:38:27;;;;;;;;;;;9.00;99.90;;;;;;8388536;28;19974;-70
2023/12/11 20:42:28;;;;;;;;;;;9.00;99.90;;;;;;8389768;28;19932;-70
2023/12/11 20:46:31;;;;;;;;;;;9.00;99.90;;;;;;8387873;28;20409;-70
2023/12/11 20:50:33;;;;;;;;;;;8.90;99.90;;;;;;8389527;28;19978;-70
2023/12/11 20:54:34;;;;;;;;;;;8.90;99.90;;;;;;8423038;27;20375;-70
2023/12/11 20:58:36;;;;;;;;;;;8.90;99.90;;;;;;8391536;28;19996;-70
2023/12/11 21:02:38;;;;;;;;;;;8.90;99.90;;;;;;8425303;27;19932;-70
2023/12/11 21:06:39;;;;;;;;;;;8.80;99.90;;;;;;8393847;28;19970;-70
2023/12/11 21:10:41;;;;;;;;;;;8.70;99.90;;;;;;8389594;28;21405;-70
2023/12/11 21:14:43;;;;;;;;;;;8.70;99.90;;;;;;8393323;28;19982;-70
2023/12/11 21:18:45;;;;;;;;;;;8.60;99.90;;;;;;8394581;28;19924;-70
2023/12/11 21:22:47;;;;;;;;;;;8.50;99.90;;;;;;8404291;28;19978;-70
2023/12/11 21:26:49;;;;;;;;;;;8.40;99.90;;;;;;8400510;28;19978;-70
2023/12/11 21:35:54;;;;;;;;;;;8.30;99.90;;;;;;8401195;28;19920;-70
2023/12/11 21:39:56;;;;;;;;;;;8.30;99.90;;;;;;8402224;28;19932;-69
2023/12/11 21:43:58;;;;;;;;;;;8.20;99.90;;;;;;8399635;28;19932;-69
2023/12/11 21:48:00;;;;;;;;;;;8.20;99.90;;;;;;8396797;28;19940;-69
2023/12/11 21:52:03;;;;;;;;;;;8.20;99.90;;;;;;8392735;28;19991;-69
2023/12/11 21:56:05;;;;;;;;;;;8.20;99.90;;;;;;8402278;28;19929;-69
2023/12/11 22:00:07;;;;;;;;;;;8.20;99.90;;;;;;8399867;28;20291;-69
2023/12/11 22:04:10;;;;;;;;;;;8.20;99.90;;;;;;8463048;27;20296;-69
2023/12/11 22:08:12;;;;;;;;;;;8.20;99.90;;;;;;8446892;28;19966;-69
2023/12/11 22:12:14;;;;;;;;;;;8.20;99.90;;;;;;8443026;28;19923;-69
2023/12/11 22:16:15;;;;;;;;;;;8.20;99.90;;;;;;8436666;28;19976;-69
2023/12/11 22:20:17;;;;;;;;;;;8.30;99.90;;;;;;8435497;28;19924;-69
2023/12/11 22:24:19;;;;;;;;;;;8.20;99.90;;;;;;8436846;28;19931;-69
2023/12/11 22:28:21;;;;;;;;;;;8.20;99.90;;;;;;8443638;28;19969;-69
2023/12/11 22:32:22;;;;;;;;;;;8.20;99.90;;;;;;8438619;28;20363;-69
2023/12/11 22:36:24;;;;;;;;;;;8.20;99.90;;;;;;8441340;28;20400;-69
2023/12/11 22:40:26;;;;;;;;;;;8.20;99.90;;;;;;8442634;28;20371;-69
2023/12/11 22:44:27;;;;;;;;;;;8.20;99.90;;;;;;8444361;28;20391;-69
2023/12/11 22:48:29;;;;;;;;;;;8.30;99.90;;;;;;8433347;28;19979;-69
2023/12/11 22:52:31;;;;;;;;;;;8.30;99.90;;;;;;8435581;28;20222;-69
2023/12/11 22:56:33;;;;;;;;;;;8.30;99.90;;;;;;8436172;28;19932;-69
2023/12/11 23:10:41;;;;;;;;;;;8.30;99.90;;;;;;8431508;28;20087;-69
2023/12/11 23:14:43;;;;;;;;;;;8.30;99.90;;;;;;8436683;28;19985;-69
2023/12/11 23:18:45;;;;;;;;;;;8.30;99.90;;;;;;8430957;28;20299;-69
2023/12/11 23:22:47;;;;;;;;;;;8.30;99.90;;;;;;8433024;28;19924;-69
2023/12/11 23:26:48;;;;;;;;;;;8.30;99.90;;;;;;8437343;28;19924;-69
2023/12/11 23:30:50;;;;;;;;;;;8.30;99.90;;;;;;8433418;28;19923;-69
2023/12/11 23:34:52;;;;;;;;;;;8.30;99.90;;;;;;8424827;28;19928;-69
2023/12/11 23:38:53;;;;;;;;;;;8.20;99.90;;;;;;8430831;28;20068;-69
2023/12/11 23:42:55;;;;;;;;;;;8.10;99.90;;;;;;8439475;28;20001;-69
2023/12/11 23:46:57;;;;;;;;;;;8.00;99.90;;;;;;8432494;28;19931;-69
2023/12/11 23:50:59;;;;;;;;;;;8.00;99.90;;;;;;8432210;28;19928;-69
2023/12/11 23:55:01;;;;;;;;;;;7.90;99.90;;;;;;8465474;27;19959;-69
2023/12/11 23:59:08;;;;;;;;;;;7.80;99.90;;;;;;8425760;28;19924;-69
